CYYQ

Churchill Airport

Churchill, Manitoba, Canada
METAR CYYQ 210400Z 19006KT 15SM FEW075 10/08 A3020 RMK AC1 AC TR SLP231
Observed Flight Rules
Jul-21 @ 04:00 UTC (23 minutes ago) Visual Flight Rules
Wind Visibility Clouds
190° at 6 knots 15 miles
  • Few at 7,500' AGL
Temperatures Readings
Current 10°C / 50°F
Dewpoint 8°C / 46°F
Humidity 88%
Altimeter 30.2" Hg
Pressure 1023.1 hPa
Elevation 29
METAR CYYQ 210400Z 19006KT 15SM FEW075 10/08 A3020 RMK AC1 AC TR SLP231
Observed Flight Rules
Jul-21 @ 04:00 UTC
(23 minutes ago)
VFR
Wind Visibility
190° at 6 knots 15 miles
Clouds
  • Few at 7,500' AGL
Temperature Dewpoint
10°C / 50°F 8°C / 46°F
Humidity Altimeter Pressure
88% 30.2" Hg 1023.1 hPa